CheckWX is a tool to help pilots better visualize weather data.  It is not intended as a substitute for an official pre-flight weather briefing.

15:38:46 UTC

CYVC TAF
La Ronge Airport
La Ronge, Canada
TAF CYVC 221238Z 2213/2301 14012G22KT P6SM FEW012 SCT250 FM222000 18012KT P6SM BKN050 FM222300 29012KT P6SM -SHRA OVC025 RMK NXT FCST BY 221900Z

Aug-22@
13:00 UTC

Aug-22 @ 13:00 UTC

Aug-22@
20:00 UTC

Aug-22 @ 20:00 UTC

TAF CYVC 221238Z 2213/2301 14012G22KT P6SM FEW012 SCT250
Wind
  • 140° at 12 KTS
  • {Gusting to 22 KTS
Cloud Levels
  • Few at 1,200' AGL
  • Scattered at 25,000' AGL

Aug-22@
20:00 UTC

Aug-22 @ 20:00 UTC

Aug-22@
23:00 UTC

Aug-22 @ 23:00 UTC

FM222000 18012KT P6SM BKN050

From

From Standard forecast or significant change

Wind
  • 180° at 12 KTS
Cloud Levels
  • Broken at 5,000' AGL

Aug-22@
23:00 UTC

Aug-22 @ 23:00 UTC

Aug-23@
01:00 UTC

Aug-23 @ 01:00 UTC

FM222300 29012KT P6SM -SHRA OVC025 RMK NXT FCST BY 221900Z

From

From Standard forecast or significant change

Wind
  • 290° at 12 KTS
Conditions
Light Rain
Cloud Levels
  • Overcast at 2,500' AGL